Time;durP1;ratioP1;P1;durP2;ratioP2;P2;SDS_P1;SDS_P2;PMS_P1;PMS_P2;Temp;Humidity;BMP_temperature;BMP_pressure;BME280_temperature;BME280_humidity;BME280_pressure;Samples;Min_cycle;Max_cycle;Signal;HPM_P1;HPM_P2
2022/07/23 00:02:15;;;;;;;19.40;17.43;;;21.70;96.40;;;;;;5015496;28;20458;-87
2022/07/23 00:04:42;;;;;;;18.83;16.90;;;21.80;96.40;;;;;;5017858;28;20456;-83
2022/07/23 00:07:09;;;;;;;18.83;17.03;;;21.60;96.70;;;;;;5016189;28;20450;-83
2022/07/23 00:09:36;;;;;;;19.87;17.33;;;21.60;96.80;;;;;;4996792;28;20516;-84
2022/07/23 00:12:04;;;;;;;18.17;16.27;;;21.50;96.80;;;;;;4998933;28;20486;-83
2022/07/23 00:14:31;;;;;;;15.73;14.13;;;21.40;97.30;;;;;;4991715;28;20455;-85
2022/07/23 00:16:58;;;;;;;15.73;14.13;;;21.30;97.50;;;;;;5011844;28;20466;-85
2022/07/23 00:19:26;;;;;;;14.43;12.90;;;21.40;97.50;;;;;;4997046;28;20486;-85
2022/07/23 00:21:55;;;;;;;14.83;13.33;;;21.30;97.20;;;;;;5004661;28;20450;-82
2022/07/23 00:24:23;;;;;;;16.67;14.93;;;21.40;97.30;;;;;;5001022;28;20471;-83
2022/07/23 00:26:51;;;;;;;17.10;15.10;;;21.40;97.60;;;;;;4998728;28;20923;-85
2022/07/23 00:29:19;;;;;;;17.60;15.90;;;21.60;97.40;;;;;;5006797;28;20474;-83
2022/07/23 00:31:53;;;;;;;19.73;17.70;;;21.50;98.00;;;;;;5020406;28;20466;-84
2022/07/23 00:34:21;;;;;;;19.03;16.97;;;21.40;99.00;;;;;;4995437;28;20462;-86
2022/07/23 00:36:53;;;;;;;19.67;17.57;;;21.40;99.90;;;;;;5006137;28;20505;-82
2022/07/23 00:39:23;;;;;;;17.10;15.40;;;21.30;99.90;;;;;;5003132;23;20486;-84
2022/07/23 00:41:51;;;;;;;18.20;16.27;;;21.20;99.90;;;;;;5004919;28;20455;-84
2022/07/23 00:44:26;;;;;;;16.20;14.47;;;21.30;99.90;;;;;;4971704;28;20464;-83
2022/07/23 00:46:55;;;;;;;15.70;14.00;;;21.20;99.80;;;;;;5007162;28;20445;-84
2022/07/23 00:49:25;;;;;;;13.93;12.43;;;21.00;99.90;;;;;;4996138;28;20593;-84
2022/07/23 00:51:54;;;;;;;14.07;12.57;;;20.70;99.90;;;;;;4966254;28;20503;-85
2022/07/23 00:54:26;;;;;;;17.30;13.90;;;20.90;99.90;;;;;;4978752;28;20444;-84
2022/07/23 00:56:54;;;;;;;15.33;13.20;;;20.90;99.90;;;;;;4979180;28;20518;-84
2022/07/23 00:59:34;;;;;;;17.90;13.77;;;21.00;99.90;;;;;;4974250;28;20592;-83
2022/07/23 01:02:01;;;;;;;12.43;11.30;;;20.70;99.80;;;;;;4996507;28;20471;-84
2022/07/23 01:04:34;;;;;;;13.40;12.00;;;20.60;99.90;;;;;;4984425;28;20443;-83
2022/07/23 01:07:24;;;;;;;13.37;11.97;;;20.70;99.90;;;;;;4975955;28;20444;-85
2022/07/23 01:09:52;;;;;;;15.83;12.90;;;20.70;99.70;;;;;;4973930;28;20494;-84
2022/07/23 01:12:39;;;;;;;14.93;12.77;;;20.70;99.90;;;;;;4988554;28;21085;-85
2022/07/23 01:15:06;;;;;;;16.33;13.53;;;20.80;99.90;;;;;;4975222;28;20483;-85
2022/07/23 01:17:33;;;;;;;18.57;14.87;;;20.90;99.90;;;;;;4982808;28;20502;-84
2022/07/23 01:20:09;;;;;;;16.17;13.37;;;21.00;99.90;;;;;;4972148;28;20486;-86
2022/07/23 01:22:36;;;;;;;16.30;12.73;;;20.80;99.90;;;;;;5000096;28;20456;-84
2022/07/23 01:25:05;;;;;;;13.83;12.20;;;20.70;99.90;;;;;;4974305;28;20459;-85
2022/07/23 01:27:35;;;;;;;14.20;12.80;;;20.70;99.90;;;;;;4975886;28;20495;-86
2022/07/23 01:30:03;;;;;;;14.43;12.93;;;20.70;99.90;;;;;;4960570;28;20543;-85
2022/07/23 01:32:34;;;;;;;14.90;13.40;;;20.70;99.90;;;;;;4985734;28;20491;-86
2022/07/23 01:35:02;;;;;;;14.67;13.27;;;20.90;99.90;;;;;;5001124;28;20455;-88
2022/07/23 01:37:29;;;;;;;14.00;12.67;;;20.70;99.90;;;;;;4975337;28;20455;-86
2022/07/23 01:39:56;;;;;;;12.27;11.03;;;20.50;99.90;;;;;;4981401;28;20463;-85
2022/07/23 01:42:24;;;;;;;14.77;13.23;;;20.50;99.90;;;;;;4976146;28;20489;-86
2022/07/23 01:44:52;;;;;;;11.50;10.40;;;20.30;99.90;;;;;;4969171;28;20452;-86
2022/07/23 01:47:23;;;;;;;11.27;10.10;;;20.40;99.90;;;;;;4981340;28;20539;-86
2022/07/23 01:49:49;;;;;;;12.07;9.90;;;20.30;99.90;;;;;;4998153;28;20483;-85
2022/07/23 01:52:16;;;;;;;12.17;10.90;;;20.40;99.90;;;;;;4995834;28;20510;-86
2022/07/23 01:54:46;;;;;;;12.53;11.33;;;20.30;99.90;;;;;;4993799;28;20520;-86
2022/07/23 01:57:17;;;;;;;11.77;10.57;;;20.40;99.90;;;;;;4979983;28;20497;-87
2022/07/23 01:59:44;;;;;;;11.47;10.37;;;20.50;99.90;;;;;;4970872;28;20547;-86
2022/07/23 02:02:23;;;;;;;12.20;10.87;;;20.50;99.90;;;;;;4976001;28;20459;-84
2022/07/23 02:04:51;;;;;;;12.70;10.37;;;20.50;99.90;;;;;;4999664;28;20492;-83
2022/07/23 02:07:32;;;;;;;11.50;10.50;;;20.70;99.90;;;;;;4998574;28;20459;-87
2022/07/23 02:10:01;;;;;;;11.33;10.13;;;20.60;99.90;;;;;;4991779;28;21004;-85
2022/07/23 02:12:33;;;;;;;12.27;11.07;;;20.50;99.90;;;;;;4970522;28;20493;-85
2022/07/23 02:15:26;;;;;;;12.63;11.43;;;20.60;99.90;;;;;;4923450;28;20447;-87
2022/07/23 02:17:53;;;;;;;12.70;11.43;;;20.70;99.90;;;;;;4929308;29;20598;-85
2022/07/23 02:20:30;;;;;;;13.20;11.90;;;20.50;99.90;;;;;;4932266;29;20498;-87
2022/07/23 02:23:11;;;;;;;13.40;12.00;;;20.40;99.90;;;;;;4918799;29;20442;-85
2022/07/23 02:25:45;;;;;;;14.63;13.13;;;20.40;99.90;;;;;;4917476;29;20474;-85
2022/07/23 02:28:17;;;;;;;13.83;12.27;;;20.30;99.90;;;;;;4925427;29;20451;-85
2022/07/23 02:31:11;;;;;;;14.57;13.00;;;20.30;99.90;;;;;;4929984;29;20813;-85
2022/07/23 02:33:47;;;;;;;14.90;13.40;;;20.30;99.90;;;;;;4920880;29;20501;-86
2022/07/23 02:36:14;;;;;;;15.83;14.23;;;20.20;99.90;;;;;;4921563;29;20445;-85
2022/07/23 02:38:52;;;;;;;17.50;15.67;;;20.30;99.90;;;;;;4916833;29;20845;-85
2022/07/23 02:41:19;;;;;;;17.43;15.17;;;20.60;99.90;;;;;;4915063;29;20502;-86
2022/07/23 02:43:49;;;;;;;16.20;14.40;;;20.50;99.90;;;;;;4917409;29;20607;-85
2022/07/23 02:46:23;;;;;;;18.63;16.57;;;20.50;99.90;;;;;;4957060;28;20502;-85
2022/07/23 02:49:06;;;;;;;17.20;15.10;;;20.30;99.90;;;;;;4979175;28;20506;-85
2022/07/23 02:51:47;;;;;;;14.93;13.40;;;20.30;99.90;;;;;;4986990;28;20875;-86
2022/07/23 02:54:19;;;;;;;15.53;13.93;;;20.30;99.90;;;;;;4987451;28;20446;-86
2022/07/23 02:56:52;;;;;;;15.00;13.40;;;20.20;99.90;;;;;;4972145;28;20450;-85
2022/07/23 02:59:53;;;;;;;19.50;14.90;;;20.10;99.90;;;;;;4998663;28;20989;-85
2022/07/23 03:02:31;;;;;;;15.50;13.90;;;20.20;99.90;;;;;;4976828;28;20482;-86
2022/07/23 03:05:03;;;;;;;14.37;12.80;;;20.10;99.90;;;;;;4990916;28;20448;-86
2022/07/23 03:07:30;;;;;;;14.43;12.90;;;20.00;99.90;;;;;;4995753;28;20437;-86
2022/07/23 03:10:15;;;;;;;14.20;12.80;;;20.00;99.90;;;;;;4987727;28;20565;-87
2022/07/23 03:12:56;;;;;;;16.30;13.40;;;19.80;99.90;;;;;;4995905;28;20444;-87
2022/07/23 03:15:23;;;;;;;15.50;13.23;;;19.70;99.90;;;;;;4986735;28;20491;-86
2022/07/23 03:18:17;;;;;;;15.93;14.10;;;19.70;99.90;;;;;;4980447;28;20464;-89
2022/07/23 03:20:47;;;;;;;17.57;15.80;;;19.70;99.90;;;;;;4984760;28;20475;-83
2022/07/23 03:23:18;;;;;;;19.50;16.93;;;19.80;99.90;;;;;;4987421;28;20451;-86
2022/07/23 03:26:09;;;;;;;20.03;18.03;;;19.90;99.90;;;;;;4988337;28;20809;-84
2022/07/23 03:28:48;;;;;;;18.20;16.07;;;19.80;99.90;;;;;;4956535;28;20452;-84
2022/07/23 03:31:15;;;;;;;18.77;16.40;;;19.70;99.90;;;;;;4990716;28;20478;-86
2022/07/23 03:34:05;;;;;;;18.63;15.93;;;19.70;99.90;;;;;;4985454;28;20958;-85
2022/07/23 03:36:36;;;;;;;20.93;17.60;;;19.70;99.90;;;;;;4976028;28;20480;-85
2022/07/23 03:39:03;;;;;;;19.03;17.03;;;19.70;99.90;;;;;;4979392;28;20456;-84
2022/07/23 03:45:10;;;;;;;19.50;17.33;;;19.60;99.90;;;;;;4952296;28;20460;-86
2022/07/23 03:47:45;;;;;;;18.07;15.90;;;19.50;99.90;;;;;;4978592;28;20466;-85
2022/07/23 03:50:15;;;;;;;19.53;17.43;;;19.50;99.90;;;;;;4984579;28;20481;-86
2022/07/23 03:56:18;;;;;;;20.70;17.20;;;19.50;99.90;;;;;;4906830;29;20839;-86
2022/07/23 03:58:58;;;;;;;22.57;17.70;;;19.40;99.90;;;;;;4908347;29;20481;-84
2022/07/23 04:01:25;;;;;;;20.77;18.10;;;19.40;99.90;;;;;;4909029;29;20471;-84
2022/07/23 04:03:57;;;;;;;21.00;17.60;;;19.40;99.90;;;;;;4917024;29;20450;-85
2022/07/23 04:07:02;;;;;;;21.17;18.57;;;19.40;99.90;;;;;;4907726;29;20462;-84
2022/07/23 04:09:57;;;;;;;20.97;18.57;;;19.30;99.90;;;;;;4849829;29;20470;-85
2022/07/23 04:12:30;;;;;;;20.07;17.90;;;19.30;99.90;;;;;;4854681;29;20491;-84
2022/07/23 04:15:12;;;;;;;21.87;17.17;;;19.30;99.90;;;;;;4902243;29;20465;-84
2022/07/23 04:17:54;;;;;;;20.57;18.37;;;19.30;99.90;;;;;;4901075;29;20534;-86
2022/07/23 04:20:30;;;;;;;25.13;18.20;;;19.30;99.90;;;;;;4917630;29;20478;-85
2022/07/23 04:23:00;;;;;;;22.40;17.33;;;19.30;99.90;;;;;;4888101;29;20459;-85
2022/07/23 04:25:44;;;;;;;19.80;17.27;;;19.30;99.90;;;;;;4901437;29;20444;-85
2022/07/23 04:28:13;;;;;;;18.07;15.77;;;19.30;99.90;;;;;;4900252;29;20464;-84
2022/07/23 04:31:14;;;;;;;18.33;16.40;;;19.30;99.90;;;;;;4869175;29;20470;-84
2022/07/23 04:33:41;;;;;;;18.30;15.73;;;19.40;99.90;;;;;;4957625;28;20495;-87
2022/07/23 04:36:11;;;;;;;16.67;15.00;;;19.40;99.90;;;;;;4971178;28;20527;-83
2022/07/23 04:38:38;;;;;;;16.63;14.90;;;19.40;99.90;;;;;;4982907;28;20452;-83
2022/07/23 04:41:16;;;;;;;18.57;14.90;;;19.40;99.90;;;;;;4989355;28;20489;-84
2022/07/23 04:43:53;;;;;;;19.03;16.27;;;19.30;99.90;;;;;;4968268;28;20447;-83
2022/07/23 04:46:30;;;;;;;;;;;;;;;;;;;;;
2022/07/23 04:51:24;;;;;;;18.40;16.00;;;19.50;99.90;;;;;;5005916;23;20500;-86
2022/07/23 04:53:55;;;;;;;19.30;16.97;;;19.40;99.90;;;;;;4976787;28;20485;-83
2022/07/23 04:56:22;;;;;;;18.17;16.27;;;19.50;99.90;;;;;;4979279;28;20458;-84
2022/07/23 04:58:49;;;;;;;19.03;17.00;;;19.50;99.90;;;;;;4981404;28;20463;-86
2022/07/23 05:01:51;;;;;;;20.43;18.27;;;19.50;99.90;;;;;;4968052;28;20499;-86
2022/07/23 05:04:47;;;;;;;21.30;17.73;;;19.50;99.90;;;;;;4948413;28;20448;-85
2022/07/23 05:07:14;;;;;;;18.07;16.27;;;19.50;99.90;;;;;;4945141;28;20468;-85
2022/07/23 05:09:43;;;;;;;21.30;16.70;;;19.50;99.90;;;;;;4965607;28;20476;-85
2022/07/23 05:12:20;;;;;;;17.80;15.63;;;19.60;99.90;;;;;;4961160;28;20498;-85
2022/07/23 05:14:47;;;;;;;21.67;18.07;;;19.60;99.90;;;;;;4980504;28;20462;-85
2022/07/23 05:17:13;;;;;;;23.13;18.53;;;19.70;99.90;;;;;;4963412;28;21064;-83
2022/07/23 05:19:43;;;;;;;18.50;16.53;;;19.70;99.90;;;;;;4964903;28;20485;-85
2022/07/23 05:22:25;;;;;;;22.30;17.70;;;19.80;99.90;;;;;;4976100;28;20478;-86
2022/07/23 05:25:01;;;;;;;23.37;19.70;;;19.80;99.90;;;;;;4976809;28;20467;-86
2022/07/23 05:27:34;;;;;;;21.93;18.30;;;19.70;99.90;;;;;;4975490;28;20451;-86
2022/07/23 05:30:10;;;;;;;21.83;18.30;;;19.80;99.90;;;;;;4973179;28;20484;-85
2022/07/23 05:32:43;;;;;;;18.90;16.60;;;19.80;99.90;;;;;;4973720;28;21068;-86
2022/07/23 05:35:30;;;;;;;19.27;17.17;;;19.80;99.90;;;;;;4973295;28;20576;-86
2022/07/23 05:37:59;;;;;;;21.30;17.60;;;19.90;99.90;;;;;;4964889;28;20454;-85
2022/07/23 05:40:26;;;;;;;19.23;16.93;;;19.90;99.90;;;;;;4958195;28;20480;-87
2022/07/23 05:42:53;;;;;;;19.50;16.37;;;20.00;99.90;;;;;;4960304;28;20833;-87
2022/07/23 05:45:20;;;;;;;20.13;17.33;;;20.20;99.90;;;;;;4973480;28;20492;-85
2022/07/23 05:48:08;;;;;;;19.37;16.10;;;20.30;99.90;;;;;;4961135;28;20460;-86
2022/07/23 05:50:38;;;;;;;20.93;17.00;;;20.30;99.90;;;;;;4981932;28;20515;-87
2022/07/23 05:53:05;;;;;;;22.00;17.53;;;20.20;99.90;;;;;;4983505;28;20464;-87
2022/07/23 05:55:43;;;;;;;22.30;17.40;;;20.10;99.90;;;;;;4963747;28;20976;-87
2022/07/23 05:58:09;;;;;;;23.40;18.10;;;20.00;99.90;;;;;;4977543;28;20873;-86
2022/07/23 06:01:30;;;;;;;20.30;16.63;;;20.20;99.90;;;;;;4973824;28;20498;-86
2022/07/23 06:04:21;;;;;;;21.40;17.00;;;20.30;99.90;;;;;;4954773;28;20483;-87
2022/07/23 06:06:56;;;;;;;22.33;16.47;;;20.30;99.90;;;;;;4992191;28;20446;-84
2022/07/23 06:09:24;;;;;;;17.67;15.80;;;20.30;99.90;;;;;;4951008;28;20479;-86
2022/07/23 06:11:51;;;;;;;19.90;16.30;;;20.40;99.90;;;;;;4968387;28;20467;-85
2022/07/23 06:14:18;;;;;;;18.77;16.27;;;20.50;99.90;;;;;;4962211;28;20490;-83
2022/07/23 06:16:47;;;;;;;19.80;16.00;;;20.70;99.90;;;;;;4960091;28;20467;-84
2022/07/23 06:22:09;;;;;;;20.47;16.20;;;20.70;99.90;;;;;;5002943;28;20529;-85
2022/07/23 06:24:53;;;;;;;20.97;15.20;;;20.50;99.90;;;;;;4974263;28;20481;-85
2022/07/23 06:27:40;;;;;;;21.23;16.07;;;20.40;99.90;;;;;;5000291;28;20796;-85
2022/07/23 06:30:47;;;;;;;20.23;15.87;;;20.50;99.90;;;;;;4986612;28;20482;-85
2022/07/23 06:33:22;;;;;;;19.87;16.57;;;21.20;99.90;;;;;;4997278;28;20497;-85
2022/07/23 06:35:55;;;;;;;16.63;14.57;;;21.20;99.90;;;;;;4987761;28;20462;-85
2022/07/23 06:38:27;;;;;;;17.97;15.30;;;21.10;99.90;;;;;;4999464;28;20463;-86
2022/07/23 06:41:25;;;;;;;19.30;15.10;;;20.90;99.90;;;;;;4985274;28;20509;-86
2022/07/23 06:43:52;;;;;;;18.83;16.87;;;21.00;99.90;;;;;;4974394;28;20529;-86
2022/07/23 06:46:40;;;;;;;19.20;15.57;;;21.50;99.90;;;;;;4997696;28;20463;-86
2022/07/23 06:49:13;;;;;;;19.37;15.53;;;21.70;99.90;;;;;;4994936;28;20459;-85
2022/07/23 06:51:43;;;;;;;18.73;15.97;;;21.60;99.90;;;;;;4985861;28;20459;-85
2022/07/23 06:54:46;;;;;;;19.73;16.50;;;21.70;99.90;;;;;;4984333;28;20482;-85
2022/07/23 06:57:34;;;;;;;16.80;14.87;;;21.80;99.90;;;;;;4993910;28;20456;-85
2022/07/23 07:00:08;;;;;;;16.33;14.00;;;21.70;99.90;;;;;;4994971;28;20501;-84
2022/07/23 07:02:46;;;;;;;17.83;14.93;;;21.40;99.90;;;;;;5001228;28;20455;-83
2022/07/23 07:05:27;;;;;;;16.50;13.67;;;21.30;99.90;;;;;;5000781;28;20486;-84
2022/07/23 07:07:57;;;;;;;15.57;13.43;;;21.30;99.90;;;;;;4986583;28;20458;-86
2022/07/23 07:10:35;;;;;;;13.03;11.60;;;21.20;99.90;;;;;;4998975;28;20486;-86
2022/07/23 07:13:04;;;;;;;15.33;12.70;;;21.70;99.90;;;;;;5010558;28;20984;-86
2022/07/23 07:15:37;;;;;;;14.80;13.00;;;21.60;99.90;;;;;;4991578;28;21144;-85
2022/07/23 07:18:05;;;;;;;17.13;13.50;;;21.60;99.90;;;;;;4980633;28;20468;-85
2022/07/23 07:20:32;;;;;;;15.57;13.97;;;21.70;99.80;;;;;;4994468;28;20483;-86
2022/07/23 07:23:02;;;;;;;15.00;13.40;;;21.80;99.60;;;;;;4984405;28;20489;-86
2022/07/23 07:26:20;;;;;;;15.47;12.67;;;21.80;99.60;;;;;;4983702;28;20522;-85
2022/07/23 07:35:27;;;;;;;14.50;11.87;;;22.00;98.40;;;;;;4963114;28;20478;-84
2022/07/23 07:38:05;;;;;;;14.70;12.57;;;22.00;99.10;;;;;;4995275;28;20467;-85
2022/07/23 07:40:37;;;;;;;16.70;11.20;;;22.10;99.00;;;;;;4993105;28;20476;-86
2022/07/23 07:43:18;;;;;;;14.40;11.27;;;22.60;98.00;;;;;;4966448;28;20610;-86
2022/07/23 07:45:55;;;;;;;13.97;12.50;;;22.50;97.80;;;;;;4995043;28;20455;-87
2022/07/23 07:48:25;;;;;;;17.20;15.57;;;22.60;97.90;;;;;;4995918;28;20550;-84
2022/07/23 07:51:01;;;;;;;16.07;14.37;;;22.50;97.50;;;;;;5093530;23;20494;-86
2022/07/23 07:53:37;;;;;;;16.43;13.60;;;22.40;97.80;;;;;;4987303;28;20482;-85
2022/07/23 07:56:16;;;;;;;14.00;12.50;;;22.50;97.70;;;;;;5014646;28;20450;-84
2022/07/23 07:58:46;;;;;;;15.50;14.00;;;22.80;97.20;;;;;;5003785;28;20463;-87
2022/07/23 08:01:37;;;;;;;15.00;12.93;;;22.70;96.80;;;;;;4983817;28;20517;-85
2022/07/23 08:04:10;;;;;;;15.57;14.07;;;22.80;97.10;;;;;;5003301;28;20849;-84
2022/07/23 08:07:09;;;;;;;15.60;14.00;;;22.90;96.80;;;;;;5000241;28;20466;-85
2022/07/23 08:09:45;;;;;;;14.03;12.63;;;23.00;96.00;;;;;;4938247;28;20481;-85
2022/07/23 08:12:24;;;;;;;13.50;12.10;;;23.10;95.50;;;;;;4996328;28;20501;-85
2022/07/23 08:15:01;;;;;;;13.97;12.63;;;23.30;95.20;;;;;;4995861;28;20458;-87
2022/07/23 08:17:34;;;;;;;15.37;13.87;;;23.50;94.80;;;;;;4990986;28;20447;-85
2022/07/23 08:20:15;;;;;;;14.70;13.37;;;23.60;94.10;;;;;;4999700;28;20515;-86
2022/07/23 08:22:43;;;;;;;12.87;11.67;;;23.60;94.00;;;;;;4997095;28;20455;-85
2022/07/23 08:25:42;;;;;;;14.23;12.90;;;23.80;94.10;;;;;;4976205;28;20465;-86
2022/07/23 08:28:21;;;;;;;14.73;13.50;;;23.90;93.40;;;;;;4998875;28;20478;-85
2022/07/23 08:30:48;;;;;;;14.60;13.10;;;23.90;93.10;;;;;;4999326;23;20500;-85
2022/07/23 08:33:16;;;;;;;13.97;12.77;;;23.70;93.40;;;;;;4980132;28;20566;-85
2022/07/23 08:35:50;;;;;;;14.70;13.50;;;23.70;93.40;;;;;;4995035;28;20458;-85
2022/07/23 08:38:21;;;;;;;14.70;13.47;;;23.90;93.30;;;;;;4996010;28;20504;-85
2022/07/23 08:41:34;;;;;;;13.47;12.17;;;25.40;91.50;;;;;;4982054;28;20511;-86
2022/07/23 08:44:25;;;;;;;11.90;10.90;;;26.20;86.70;;;;;;4989622;28;20446;-87
2022/07/23 08:47:07;;;;;;;12.40;11.30;;;27.30;82.70;;;;;;4992409;28;20458;-85
2022/07/23 08:49:42;;;;;;;12.50;11.50;;;28.60;76.40;;;;;;4988729;28;20476;-84
2022/07/23 08:52:09;;;;;;;12.00;10.90;;;29.70;71.70;;;;;;4974359;28;20452;-85
2022/07/23 08:55:06;;;;;;;11.47;10.47;;;29.90;67.80;;;;;;4976741;28;20472;-85
2022/07/23 08:57:36;;;;;;;11.43;10.40;;;30.40;66.30;;;;;;4963820;28;20462;-86
2022/07/23 09:00:07;;;;;;;11.43;10.53;;;31.30;61.10;;;;;;4994264;28;20918;-85
2022/07/23 09:02:47;;;;;;;11.03;10.03;;;32.70;56.80;;;;;;4999032;28;20912;-87
2022/07/23 09:05:26;;;;;;;10.87;9.97;;;33.10;54.80;;;;;;5005638;28;20462;-83
2022/07/23 09:08:18;;;;;;;10.13;9.20;;;32.80;54.90;;;;;;4995013;28;20447;-87
2022/07/23 09:10:47;;;;;;;9.33;8.63;;;32.60;55.40;;;;;;4996353;28;20474;-89
2022/07/23 09:20:22;;;;;;;11.47;10.63;;;30.40;57.50;;;;;;4953636;28;20458;-87
2022/07/23 09:22:50;;;;;;;11.57;10.67;;;29.60;61.40;;;;;;4999515;28;20452;-85
2022/07/23 09:25:24;;;;;;;12.03;11.13;;;30.10;60.60;;;;;;5001720;28;20444;-85
2022/07/23 09:27:59;;;;;;;10.50;9.67;;;30.20;59.00;;;;;;5003159;28;20526;-85
2022/07/23 09:30:46;;;;;;;11.13;10.33;;;29.50;59.50;;;;;;4982067;28;20501;-85
2022/07/23 09:33:29;;;;;;;11.07;10.07;;;29.00;62.00;;;;;;4999550;28;20471;-86
2022/07/23 09:36:09;;;;;;;12.23;11.13;;;30.10;60.00;;;;;;5000443;28;21007;-84
2022/07/23 09:38:54;;;;;;;12.37;11.40;;;30.50;58.00;;;;;;4988410;28;20497;-86
2022/07/23 09:41:46;;;;;;;11.40;10.40;;;30.50;57.60;;;;;;4995426;28;20523;-85
2022/07/23 09:44:18;;;;;;;12.87;11.60;;;31.10;56.40;;;;;;4980922;28;20444;-86
2022/07/23 09:46:57;;;;;;;13.00;11.90;;;30.10;56.90;;;;;;5019429;28;20506;-84
2022/07/23 09:52:31;;;;;;;14.70;13.60;;;30.10;58.90;;;;;;5019588;28;20474;-86
2022/07/23 09:55:08;;;;;;;13.37;12.17;;;30.90;57.40;;;;;;5011225;28;20455;-86
2022/07/23 09:57:41;;;;;;;14.50;13.30;;;31.10;55.80;;;;;;5000895;28;20452;-85
2022/07/23 10:00:11;;;;;;;14.40;13.07;;;31.00;56.00;;;;;;4999069;28;20467;-88
2022/07/23 10:02:45;;;;;;;14.60;13.23;;;30.90;55.20;;;;;;5011125;28;20495;-89
2022/07/23 10:05:16;;;;;;;12.53;11.53;;;32.40;53.80;;;;;;5006747;28;20499;-89
2022/07/23 10:07:57;;;;;;;14.40;13.03;;;32.80;52.60;;;;;;5008555;28;20456;-87
2022/07/23 10:15:48;;;;;;;14.80;13.13;;;31.10;53.40;;;;;;4997693;28;20456;-85
2022/07/23 10:18:41;;;;;;;12.90;11.33;;;30.30;54.80;;;;;;5005765;28;20434;-84
2022/07/23 10:21:37;;;;;;;12.40;11.40;;;30.30;54.80;;;;;;5007147;28;20847;-85
2022/07/23 10:24:27;;;;;;;11.83;10.90;;;31.40;54.40;;;;;;5012816;28;20448;-85
2022/07/23 10:27:16;;;;;;;13.30;12.20;;;32.30;52.00;;;;;;4981713;28;20460;-86
2022/07/23 10:29:55;;;;;;;12.70;11.50;;;33.30;49.80;;;;;;4998800;28;20502;-87
2022/07/23 10:32:39;;;;;;;11.23;10.27;;;32.00;50.90;;;;;;5022320;28;20423;-86
2022/07/23 10:35:45;;;;;;;12.77;11.67;;;31.40;52.60;;;;;;5012969;28;20479;-85
2022/07/23 10:38:23;;;;;;;9.30;8.57;;;32.60;51.30;;;;;;5013953;28;20975;-85
2022/07/23 10:41:01;;;;;;;8.60;7.80;;;32.90;49.70;;;;;;5006086;28;20465;-86
2022/07/23 10:43:31;;;;;;;8.90;8.20;;;31.90;50.90;;;;;;4989274;28;20463;-85
2022/07/23 10:46:43;;;;;;;8.70;7.93;;;32.30;50.60;;;;;;5002100;28;20452;-84
2022/07/23 10:49:30;;;;;;;7.10;6.10;;;32.70;50.90;;;;;;4996890;28;20505;-86
2022/07/23 10:52:30;;;;;;;10.03;9.10;;;33.30;47.50;;;;;;5002268;28;20455;-84
2022/07/23 10:55:11;;;;;;;8.30;7.70;;;33.30;46.90;;;;;;4977876;28;20475;-84
2022/07/23 10:58:34;;;;;;;9.20;8.50;;;32.00;49.10;;;;;;5013497;28;20462;-87
2022/07/23 11:01:36;;;;;;;9.63;8.87;;;30.80;51.20;;;;;;5002842;28;20455;-85
2022/07/23 11:04:28;;;;;;;8.37;7.53;;;30.00;52.50;;;;;;5004087;28;20448;-83
2022/07/23 11:07:24;;;;;;;9.57;8.57;;;29.90;53.20;;;;;;5004464;28;20439;-85
2022/07/23 11:10:06;;;;;;;6.93;6.37;;;30.60;52.70;;;;;;5000718;28;20526;-87
2022/07/23 11:12:47;;;;;;;7.83;7.23;;;32.70;49.30;;;;;;5004491;28;20459;-83
2022/07/23 11:15:20;;;;;;;6.83;6.30;;;33.20;47.30;;;;;;5000867;28;20591;-86
2022/07/23 11:17:55;;;;;;;7.00;6.40;;;33.20;46.50;;;;;;4989177;28;20443;-86
2022/07/23 11:20:52;;;;;;;6.00;5.50;;;33.00;47.30;;;;;;5008271;28;20459;-86
2022/07/23 11:24:01;;;;;;;5.70;5.30;;;32.40;47.50;;;;;;5003025;28;20455;-85
2022/07/23 11:27:04;;;;;;;6.60;6.00;;;31.90;46.70;;;;;;4997307;28;20451;-84
2022/07/23 11:29:31;;;;;;;7.13;6.53;;;32.20;48.20;;;;;;5045495;23;20515;-85
2022/07/23 11:32:08;;;;;;;6.93;6.40;;;32.50;46.90;;;;;;4964189;29;20461;-87
2022/07/23 11:34:54;;;;;;;6.73;6.03;;;32.70;46.50;;;;;;4968472;28;20563;-86
2022/07/23 11:37:43;;;;;;;6.77;6.13;;;33.00;45.20;;;;;;4984648;28;20550;-87
2022/07/23 11:40:26;;;;;;;7.93;7.33;;;33.00;46.20;;;;;;4958989;28;20536;-87
2022/07/23 11:43:01;;;;;;;8.57;7.40;;;33.10;45.80;;;;;;4964553;28;20456;-86
2022/07/23 11:45:45;;;;;;;8.67;8.07;;;32.70;46.10;;;;;;4965705;28;20996;-85
2022/07/23 11:48:21;;;;;;;7.23;6.70;;;33.20;45.60;;;;;;4981375;28;20484;-85
2022/07/23 11:51:00;;;;;;;8.23;7.63;;;33.20;46.10;;;;;;4975450;28;20487;-84
2022/07/23 11:53:34;;;;;;;7.57;7.07;;;32.60;46.00;;;;;;4963320;28;20487;-86
2022/07/23 11:56:16;;;;;;;7.90;7.23;;;31.60;47.70;;;;;;4962703;28;20456;-86
2022/07/23 11:58:57;;;;;;;7.63;7.03;;;31.30;48.20;;;;;;4964012;28;20539;-85
2022/07/23 12:02:05;;;;;;;7.70;7.10;;;30.70;49.10;;;;;;4960175;28;20452;-86
2022/07/23 12:04:48;;;;;;;6.37;5.87;;;30.50;49.20;;;;;;4979993;28;20484;-87
2022/07/23 12:07:50;;;;;;;8.10;7.30;;;30.50;50.50;;;;;;4964200;28;20849;-86
2022/07/23 12:10:20;;;;;;;7.40;6.87;;;31.00;49.00;;;;;;4980826;28;21390;-86
2022/07/23 12:13:24;;;;;;;8.73;7.50;;;31.80;48.30;;;;;;4963300;28;20479;-88
2022/07/23 12:15:58;;;;;;;8.03;7.43;;;32.10;48.10;;;;;;4953143;28;20468;-89
2022/07/23 12:18:27;;;;;;;9.13;8.43;;;32.30;47.00;;;;;;4964479;28;20487;-85
2022/07/23 12:21:06;;;;;;;8.00;7.50;;;33.00;45.20;;;;;;4970860;28;21040;-87
2022/07/23 12:23:37;;;;;;;7.73;7.10;;;31.40;46.20;;;;;;4981690;28;20444;-85
2022/07/23 12:26:06;;;;;;;7.60;6.87;;;30.70;48.20;;;;;;4960112;28;20494;-87
2022/07/23 12:28:37;;;;;;;8.07;7.40;;;30.70;48.80;;;;;;4983536;28;20515;-87
2022/07/23 12:31:07;;;;;;;6.30;5.80;;;30.80;48.20;;;;;;4971688;28;20512;-85
2022/07/23 12:33:44;;;;;;;6.90;6.30;;;31.00;48.30;;;;;;4973490;28;20479;-86
2022/07/23 12:36:47;;;;;;;6.70;6.10;;;32.00;46.30;;;;;;4963385;28;20472;-85
2022/07/23 12:39:38;;;;;;;6.73;6.17;;;31.90;45.90;;;;;;4966904;28;20456;-85
2022/07/23 12:42:17;;;;;;;5.30;5.00;;;31.60;46.40;;;;;;4980638;28;20451;-85
2022/07/23 12:45:11;;;;;;;5.37;4.97;;;31.70;45.40;;;;;;4973717;28;20475;-88
2022/07/23 12:48:06;;;;;;;5.27;4.30;;;32.60;45.00;;;;;;4986619;28;20463;-85
2022/07/23 12:50:51;;;;;;;5.37;4.90;;;32.00;43.30;;;;;;4950188;29;20449;-87
2022/07/23 12:53:26;;;;;;;3.90;3.60;;;32.10;44.30;;;;;;4966125;28;20464;-85
2022/07/23 12:55:59;;;;;;;4.10;3.80;;;31.70;43.10;;;;;;4973303;28;20511;-87
2022/07/23 12:59:19;;;;;;;4.20;3.90;;;31.00;43.80;;;;;;4982198;28;20456;-85
2022/07/23 13:02:02;;;;;;;4.87;4.57;;;30.70;45.60;;;;;;4952078;28;20462;-84
2022/07/23 13:04:33;;;;;;;5.20;4.70;;;30.80;46.20;;;;;;4969077;28;20462;-85
2022/07/23 13:07:07;;;;;;;4.23;3.83;;;31.00;46.10;;;;;;4969215;28;20456;-86
2022/07/23 13:10:13;;;;;;;4.70;4.30;;;30.90;45.50;;;;;;4981165;28;20479;-85
2022/07/23 13:12:46;;;;;;;4.30;3.90;;;31.20;45.50;;;;;;4987390;28;20444;-87
2022/07/23 13:15:22;;;;;;;5.00;4.40;;;31.30;45.20;;;;;;4971553;28;20475;-87
2022/07/23 13:17:49;;;;;;;4.43;4.03;;;31.40;44.70;;;;;;4989967;28;20436;-86
2022/07/23 13:20:26;;;;;;;4.73;4.37;;;31.20;45.10;;;;;;4972959;28;20499;-88
2022/07/23 13:22:55;;;;;;;4.70;3.60;;;31.40;45.60;;;;;;4990829;28;20843;-87
2022/07/23 13:25:26;;;;;;;4.57;4.07;;;31.40;45.60;;;;;;4976041;28;20460;-87
2022/07/23 13:27:56;;;;;;;4.83;3.87;;;31.30;45.80;;;;;;4990925;28;20489;-84
2022/07/23 13:30:28;;;;;;;3.80;3.60;;;31.10;45.90;;;;;;4988409;28;20472;-86
2022/07/23 13:33:05;;;;;;;3.97;3.47;;;30.90;45.70;;;;;;4979645;28;20474;-88
2022/07/23 13:35:43;;;;;;;4.80;4.40;;;30.90;45.80;;;;;;4989410;28;20481;-85
2022/07/23 13:38:13;;;;;;;4.23;3.93;;;30.90;46.60;;;;;;4982992;28;20450;-83
2022/07/23 13:40:53;;;;;;;5.67;4.47;;;30.70;46.60;;;;;;4994586;28;20468;-88
2022/07/23 13:43:25;;;;;;;3.63;3.33;;;30.40;47.20;;;;;;5000651;28;20490;-86
2022/07/23 13:46:01;;;;;;;3.50;3.20;;;30.30;47.60;;;;;;4981269;28;20451;-88
2022/07/23 13:48:34;;;;;;;3.63;3.20;;;31.10;46.20;;;;;;4983267;28;20450;-87
2022/07/23 13:51:16;;;;;;;3.90;3.60;;;30.70;46.80;;;;;;4976511;28;20456;-85
2022/07/23 13:54:15;;;;;;;3.43;3.13;;;30.40;47.30;;;;;;4979948;28;20518;-86
2022/07/23 13:56:57;;;;;;;3.63;3.33;;;30.70;46.80;;;;;;4976006;28;20491;-87
2022/07/23 13:59:27;;;;;;;4.13;3.73;;;30.50;46.30;;;;;;4982115;28;20546;-85
2022/07/23 14:01:54;;;;;;;5.67;4.27;;;31.10;46.00;;;;;;4963646;28;20456;-84